FLIGHT DOCUMENT

Klik link di bawah ini :

METAR

METAR WAGS 271400Z 00000KT 7000 FEW008CB SCT009 25/24 Q1009 NOSIG=
METAR WAGS 271300Z 00000KT 7000 VCTS FEW008CB SCT009 26/25 Q1009 NOSIG=
METAR WAGS 271200Z 00000KT 7000 VCTS FEW008CB SCT009 26/25 Q1007 NOSIG=

SPECI

---

TAFOR

TAF WAGS 270500Z 2706/2718 24004KT 7000 FEW008TCU BKN009=
TAF WAGS 262300Z 2700/2712 30003KT 8000 BKN009=